Time;durP1;ratioP1;P1;durP2;ratioP2;P2;SDS_P1;SDS_P2;PMS_P1;PMS_P2;Temp;Humidity;BMP_temperature;BMP_pressure;BME280_temperature;BME280_humidity;BME280_pressure;Samples;Min_cycle;Max_cycle;Signal;HPM_P1;HPM_P2
2021/10/20 00:01:13;;;;;;;6.97;2.72;;;;;;;;;;4955549;28;20499;-59
2021/10/20 00:03:39;;;;;;;5.82;2.83;;;;;;;;;;4952961;28;20054;-59
2021/10/20 00:06:05;;;;;;;7.15;3.13;;;;;;;;;;4953992;28;20512;-59
2021/10/20 00:08:31;;;;;;;6.38;2.55;;;;;;;;;;4954478;28;20043;-59
2021/10/20 00:10:57;;;;;;;12.38;3.22;;;;;;;;;;4953220;28;20095;-59
2021/10/20 00:13:23;;;;;;;14.00;2.72;;;;;;;;;;4954066;28;20500;-59
2021/10/20 00:15:49;;;;;;;9.48;3.17;;;;;;;;;;4953595;28;20035;-59
2021/10/20 00:18:15;;;;;;;8.70;2.78;;;;;;;;;;4966542;28;20047;-58
2021/10/20 00:20:41;;;;;;;12.18;2.90;;;;;;;;;;4953077;28;20115;-58
2021/10/20 00:23:09;;;;;;;8.95;2.78;;;;;;;;;;4954148;28;20047;-58
2021/10/20 00:25:35;;;;;;;11.35;3.35;;;;;;;;;;4950798;28;20457;-57
2021/10/20 00:28:01;;;;;;;8.90;2.65;;;;;;;;;;4953184;28;20073;-59
2021/10/20 00:30:27;;;;;;;10.00;3.13;;;;;;;;;;4953478;28;20043;-59
2021/10/20 00:32:53;;;;;;;8.80;2.97;;;;;;;;;;4943213;28;20075;-59
2021/10/20 00:35:19;;;;;;;8.80;2.83;;;;;;;;;;4945870;28;20785;-58
2021/10/20 00:37:45;;;;;;;9.10;3.10;;;;;;;;;;4955312;28;20030;-60
2021/10/20 00:40:11;;;;;;;12.18;3.33;;;;;;;;;;4954907;28;20046;-58
2021/10/20 00:42:37;;;;;;;8.15;2.47;;;;;;;;;;4944456;28;20062;-59
2021/10/20 00:45:04;;;;;;;5.70;2.70;;;;;;;;;;4952521;28;20081;-57
2021/10/20 00:47:30;;;;;;;8.35;3.10;;;;;;;;;;4947970;28;20039;-58
2021/10/20 00:49:56;;;;;;;5.68;3.03;;;;;;;;;;4952848;28;20070;-56
2021/10/20 00:52:22;;;;;;;6.57;2.40;;;;;;;;;;4953259;28;20039;-60
2021/10/20 00:54:50;;;;;;;11.32;2.85;;;;;;;;;;4954254;28;20564;-58
2021/10/20 00:57:16;;;;;;;17.63;3.70;;;;;;;;;;4952774;28;20145;-59
2021/10/20 00:59:42;;;;;;;13.38;3.35;;;;;;;;;;4954394;28;20046;-55
2021/10/20 01:02:09;;;;;;;13.52;3.03;;;;;;;;;;4954497;28;20035;-57
2021/10/20 01:04:36;;;;;;;12.43;3.70;;;;;;;;;;4951511;28;20399;-57
2021/10/20 01:07:02;;;;;;;12.48;3.63;;;;;;;;;;4954001;28;20493;-59
2021/10/20 01:09:28;;;;;;;8.95;2.97;;;;;;;;;;4952849;28;20124;-58
2021/10/20 01:11:54;;;;;;;8.02;3.30;;;;;;;;;;4957916;28;20042;-60
2021/10/20 01:14:21;;;;;;;8.77;3.60;;;;;;;;;;4955573;28;20786;-58
2021/10/20 01:16:47;;;;;;;8.70;3.22;;;;;;;;;;4944713;28;20034;-58
2021/10/20 01:19:14;;;;;;;14.15;3.65;;;;;;;;;;4952327;28;20098;-59
2021/10/20 01:21:40;;;;;;;9.80;3.63;;;;;;;;;;4954679;28;20440;-59
2021/10/20 01:24:06;;;;;;;8.68;3.20;;;;;;;;;;4950226;28;20051;-58
2021/10/20 01:26:32;;;;;;;16.13;3.38;;;;;;;;;;4952734;28;20038;-60
2021/10/20 01:28:58;;;;;;;12.68;3.58;;;;;;;;;;4953990;28;20424;-59
2021/10/20 01:31:24;;;;;;;9.73;3.28;;;;;;;;;;4950622;28;20385;-58
2021/10/20 01:33:50;;;;;;;8.43;3.05;;;;;;;;;;4950267;28;20113;-56
2021/10/20 01:36:16;;;;;;;11.38;3.10;;;;;;;;;;4957150;28;20526;-58
2021/10/20 01:38:42;;;;;;;10.13;3.40;;;;;;;;;;4947051;28;20038;-59
2021/10/20 01:41:08;;;;;;;11.07;3.88;;;;;;;;;;4948341;28;20044;-58
2021/10/20 01:43:52;;;;;;;16.30;3.53;;;;;;;;;;4949853;28;20079;-58
2021/10/20 01:46:17;;;;;;;;;;;;;;;;;;4962409;28;20040;-58
2021/10/20 01:48:43;;;;;;;9.52;3.50;;;;;;;;;;4958780;28;19925;-60
2021/10/20 01:51:09;;;;;;;9.98;3.25;;;;;;;;;;4959815;28;20035;-58
2021/10/20 01:53:35;;;;;;;19.70;3.65;;;;;;;;;;4955963;28;20109;-58
2021/10/20 01:56:00;;;;;;;9.65;3.55;;;;;;;;;;4957228;28;20047;-58
2021/10/20 01:58:26;;;;;;;11.30;3.50;;;;;;;;;;4951423;28;20043;-58
2021/10/20 02:00:52;;;;;;;6.82;3.50;;;;;;;;;;4955316;28;20125;-59
2021/10/20 02:03:18;;;;;;;12.48;3.45;;;;;;;;;;4955575;28;20512;-58
2021/10/20 02:05:44;;;;;;;8.77;3.22;;;;;;;;;;4956118;28;20043;-58
2021/10/20 02:08:09;;;;;;;10.70;2.90;;;;;;;;;;4955687;28;20551;-59
2021/10/20 02:10:35;;;;;;;7.72;3.22;;;;;;;;;;4970123;28;20043;-56
2021/10/20 02:13:01;;;;;;;18.15;3.47;;;;;;;;;;4958274;28;20089;-57
2021/10/20 02:15:27;;;;;;;11.50;2.95;;;;;;;;;;4958177;28;20051;-57
2021/10/20 02:17:53;;;;;;;6.28;2.63;;;;;;;;;;4959870;28;20039;-59
2021/10/20 02:20:19;;;;;;;5.85;2.65;;;;;;;;;;4960676;28;20077;-59
2021/10/20 02:22:45;;;;;;;12.75;2.95;;;;;;;;;;4959820;28;20469;-58
2021/10/20 02:25:12;;;;;;;11.00;2.58;;;;;;;;;;4959876;28;20039;-59
2021/10/20 02:27:38;;;;;;;6.20;2.08;;;;;;;;;;4960175;28;20045;-58
2021/10/20 02:30:05;;;;;;;6.10;2.40;;;;;;;;;;4958974;28;20393;-57
2021/10/20 02:32:31;;;;;;;8.18;2.50;;;;;;;;;;4960879;28;20942;-59
2021/10/20 02:34:57;;;;;;;9.95;2.40;;;;;;;;;;4955371;28;20030;-58
2021/10/20 02:37:23;;;;;;;5.72;2.30;;;;;;;;;;4950977;28;20036;-59
2021/10/20 02:39:49;;;;;;;6.88;2.22;;;;;;;;;;4961442;28;20038;-58
2021/10/20 02:42:15;;;;;;;16.83;3.13;;;;;;;;;;4958678;28;20126;-59
2021/10/20 02:44:41;;;;;;;7.05;2.50;;;;;;;;;;4963899;28;20053;-58
2021/10/20 02:47:06;;;;;;;6.43;2.50;;;;;;;;;;4965781;28;20059;-59
2021/10/20 02:49:32;;;;;;;5.45;2.35;;;;;;;;;;4967216;28;20054;-58
2021/10/20 02:51:58;;;;;;;9.95;2.70;;;;;;;;;;4974252;28;20095;-59
2021/10/20 02:54:24;;;;;;;6.05;2.25;;;;;;;;;;4961533;28;20039;-62
2021/10/20 02:56:50;;;;;;;10.93;2.50;;;;;;;;;;4964015;28;20508;-58
2021/10/20 02:59:16;;;;;;;7.43;2.63;;;;;;;;;;4973372;28;20053;-59
2021/10/20 03:01:42;;;;;;;7.30;2.50;;;;;;;;;;4958385;28;20122;-59
2021/10/20 03:04:08;;;;;;;4.50;2.35;;;;;;;;;;4956816;28;20051;-58
2021/10/20 03:06:33;;;;;;;4.97;2.40;;;;;;;;;;4956015;28;20113;-58
2021/10/20 03:08:59;;;;;;;11.00;2.33;;;;;;;;;;4972023;28;20046;-56
2021/10/20 03:11:25;;;;;;;6.80;2.50;;;;;;;;;;4951906;28;20066;-58
2021/10/20 03:13:51;;;;;;;8.88;2.33;;;;;;;;;;4955715;28;20093;-59
2021/10/20 03:16:17;;;;;;;9.32;3.15;;;;;;;;;;4953673;28;20043;-57
2021/10/20 03:18:43;;;;;;;8.25;2.17;;;;;;;;;;4955645;28;20050;-57
2021/10/20 03:21:09;;;;;;;7.05;2.20;;;;;;;;;;4970839;28;20038;-59
2021/10/20 03:23:35;;;;;;;12.18;2.45;;;;;;;;;;4953275;28;20057;-56
2021/10/20 03:26:01;;;;;;;4.53;2.17;;;;;;;;;;4954145;28;20126;-58
2021/10/20 03:28:27;;;;;;;9.25;2.10;;;;;;;;;;4950878;28;20459;-59
2021/10/20 03:30:52;;;;;;;11.32;2.13;;;;;;;;;;4952208;28;20113;-57
2021/10/20 03:33:18;;;;;;;4.82;2.15;;;;;;;;;;4952448;28;20051;-56
2021/10/20 03:35:45;;;;;;;3.85;1.70;;;;;;;;;;4941158;28;20039;-57
2021/10/20 03:38:11;;;;;;;8.60;2.28;;;;;;;;;;4944626;28;20497;-57
2021/10/20 03:40:37;;;;;;;7.55;1.85;;;;;;;;;;4954017;28;20043;-58
2021/10/20 03:43:03;;;;;;;7.93;1.70;;;;;;;;;;4955810;28;20055;-57
2021/10/20 03:45:29;;;;;;;9.40;2.30;;;;;;;;;;4956316;28;20707;-57
2021/10/20 03:47:55;;;;;;;5.45;2.10;;;;;;;;;;4956291;28;20070;-58
2021/10/20 03:50:21;;;;;;;7.10;1.98;;;;;;;;;;4953829;28;20444;-59
2021/10/20 03:52:46;;;;;;;13.23;2.20;;;;;;;;;;4956653;28;20432;-58
2021/10/20 03:55:12;;;;;;;5.45;1.98;;;;;;;;;;4954219;28;20200;-59
2021/10/20 03:57:39;;;;;;;7.88;1.95;;;;;;;;;;4952691;28;20047;-60
2021/10/20 04:00:07;;;;;;;7.30;2.20;;;;;;;;;;4955069;28;20042;-56
2021/10/20 04:02:33;;;;;;;4.57;1.90;;;;;;;;;;4953911;28;20086;-56
2021/10/20 04:04:58;;;;;;;4.78;1.90;;;;;;;;;;4953767;28;20046;-58
2021/10/20 04:07:24;;;;;;;5.93;1.80;;;;;;;;;;4952094;28;20047;-57
2021/10/20 04:09:50;;;;;;;4.20;1.77;;;;;;;;;;4952548;28;20039;-58
2021/10/20 04:12:16;;;;;;;4.80;1.73;;;;;;;;;;4953332;28;20039;-57
2021/10/20 04:14:42;;;;;;;3.47;1.48;;;;;;;;;;4952469;28;20094;-54
2021/10/20 04:17:08;;;;;;;10.15;1.73;;;;;;;;;;4952111;28;20039;-57
2021/10/20 04:19:34;;;;;;;4.90;1.73;;;;;;;;;;4948682;28;20039;-59
2021/10/20 04:21:59;;;;;;;7.15;1.85;;;;;;;;;;4951325;28;20118;-56
2021/10/20 04:24:25;;;;;;;7.53;2.30;;;;;;;;;;4952155;28;20047;-56
2021/10/20 04:26:51;;;;;;;5.90;1.55;;;;;;;;;;4952299;28;20039;-57
2021/10/20 04:29:17;;;;;;;3.65;1.65;;;;;;;;;;4952081;28;20534;-58
2021/10/20 04:31:43;;;;;;;5.22;2.08;;;;;;;;;;4950007;28;20158;-58
2021/10/20 04:34:08;;;;;;;5.68;2.40;;;;;;;;;;4950136;28;21849;-59
2021/10/20 04:36:34;;;;;;;8.75;2.28;;;;;;;;;;4965439;28;20034;-61
2021/10/20 04:39:00;;;;;;;7.40;2.10;;;;;;;;;;4950467;28;22483;-58
2021/10/20 04:41:26;;;;;;;7.95;2.05;;;;;;;;;;4949440;28;20043;-58
2021/10/20 04:43:52;;;;;;;12.73;1.77;;;;;;;;;;4950033;28;20117;-56
2021/10/20 04:46:18;;;;;;;11.43;2.00;;;;;;;;;;4948851;28;20600;-57
2021/10/20 04:48:44;;;;;;;5.38;2.03;;;;;;;;;;4948859;28;20047;-57
2021/10/20 04:51:10;;;;;;;4.63;1.60;;;;;;;;;;4966635;28;20042;-58
2021/10/20 04:53:38;;;;;;;5.60;2.13;;;;;;;;;;4949707;28;20125;-54
2021/10/20 04:56:04;;;;;;;7.30;1.80;;;;;;;;;;4949043;28;20105;-58
2021/10/20 04:58:29;;;;;;;9.68;1.90;;;;;;;;;;4949201;28;20043;-58
2021/10/20 05:00:55;;;;;;;4.90;1.77;;;;;;;;;;4948230;28;21793;-58
2021/10/20 05:03:21;;;;;;;7.20;2.33;;;;;;;;;;4950358;28;20086;-59
2021/10/20 05:05:47;;;;;;;4.50;1.75;;;;;;;;;;4949927;28;20050;-59
2021/10/20 05:08:13;;;;;;;4.93;2.10;;;;;;;;;;4947261;28;20058;-58
2021/10/20 05:10:39;;;;;;;7.38;2.05;;;;;;;;;;4948397;28;20058;-59
2021/10/20 05:13:05;;;;;;;3.58;1.77;;;;;;;;;;4950338;28;20050;-58
2021/10/20 05:15:31;;;;;;;4.60;2.13;;;;;;;;;;4948275;28;20636;-59
2021/10/20 05:17:56;;;;;;;4.90;1.95;;;;;;;;;;4948250;28;20097;-59
2021/10/20 05:20:22;;;;;;;3.92;1.75;;;;;;;;;;4964164;28;20035;-60
2021/10/20 05:22:48;;;;;;;3.90;1.90;;;;;;;;;;4950424;28;20508;-60
2021/10/20 05:25:19;;;;;;;10.40;1.92;;;;;;;;;;4948971;28;20039;-60
2021/10/20 05:27:45;;;;;;;5.95;2.00;;;;;;;;;;4948340;28;20043;-59
2021/10/20 05:30:11;;;;;;;5.25;2.00;;;;;;;;;;4949442;28;20133;-59
2021/10/20 05:32:37;;;;;;;10.68;2.00;;;;;;;;;;4950898;28;20042;-57
2021/10/20 05:35:03;;;;;;;6.75;1.83;;;;;;;;;;4950621;28;20074;-57
2021/10/20 05:37:29;;;;;;;5.80;1.83;;;;;;;;;;4949091;28;20143;-57
2021/10/20 05:39:54;;;;;;;6.25;2.33;;;;;;;;;;4951224;28;20129;-59
2021/10/20 05:42:20;;;;;;;5.50;1.83;;;;;;;;;;4950480;28;20113;-58
2021/10/20 05:44:46;;;;;;;6.45;2.13;;;;;;;;;;4951376;28;20039;-59
2021/10/20 05:47:12;;;;;;;6.53;1.80;;;;;;;;;;4949875;28;20035;-59
2021/10/20 05:49:38;;;;;;;5.00;2.45;;;;;;;;;;4948967;28;20106;-56
2021/10/20 05:52:04;;;;;;;5.32;2.00;;;;;;;;;;4949963;28;20053;-58
2021/10/20 05:54:30;;;;;;;6.85;2.03;;;;;;;;;;4948507;28;20148;-58
2021/10/20 05:56:56;;;;;;;5.90;2.30;;;;;;;;;;4967842;28;20403;-58
2021/10/20 05:59:23;;;;;;;4.90;2.17;;;;;;;;;;4950549;28;20039;-59
2021/10/20 06:01:50;;;;;;;5.03;2.03;;;;;;;;;;4954525;28;20474;-59
2021/10/20 06:04:16;;;;;;;4.82;2.22;;;;;;;;;;4956620;28;20468;-59
2021/10/20 06:06:43;;;;;;;4.72;1.80;;;;;;;;;;4953249;28;20529;-59
2021/10/20 06:09:09;;;;;;;5.75;2.00;;;;;;;;;;4954826;28;20166;-59
2021/10/20 06:11:34;;;;;;;3.78;2.20;;;;;;;;;;4955350;28;20134;-59
2021/10/20 06:14:00;;;;;;;4.80;2.20;;;;;;;;;;4954012;28;20043;-58
2021/10/20 06:16:26;;;;;;;6.47;2.47;;;;;;;;;;4950499;28;20097;-58
2021/10/20 06:18:52;;;;;;;10.32;2.58;;;;;;;;;;4949103;28;20039;-53
2021/10/20 06:21:18;;;;;;;8.90;2.50;;;;;;;;;;4964854;28;20043;-58
2021/10/20 06:23:44;;;;;;;5.28;2.00;;;;;;;;;;4955566;28;20051;-59
2021/10/20 06:26:10;;;;;;;5.50;2.30;;;;;;;;;;4954966;28;20559;-57
2021/10/20 06:28:36;;;;;;;11.45;2.67;;;;;;;;;;4955921;28;20121;-57
2021/10/20 06:31:02;;;;;;;4.80;2.00;;;;;;;;;;4952746;28;20070;-54
2021/10/20 06:33:28;;;;;;;5.03;2.33;;;;;;;;;;4953822;28;20451;-59
2021/10/20 06:35:54;;;;;;;9.57;2.28;;;;;;;;;;4952235;28;20042;-59
2021/10/20 06:38:21;;;;;;;9.90;2.50;;;;;;;;;;4952900;28;20045;-59
2021/10/20 06:40:48;;;;;;;7.28;2.28;;;;;;;;;;4953166;28;20037;-57
2021/10/20 06:43:14;;;;;;;4.40;2.15;;;;;;;;;;4970300;28;20051;-58
2021/10/20 06:45:40;;;;;;;9.05;2.55;;;;;;;;;;4954444;28;20093;-59
2021/10/20 06:48:06;;;;;;;6.10;2.40;;;;;;;;;;4953811;28;20598;-56
2021/10/20 06:50:32;;;;;;;5.03;2.20;;;;;;;;;;4952866;28;20051;-59
2021/10/20 06:52:57;;;;;;;5.80;2.47;;;;;;;;;;4951578;28;20066;-57
2021/10/20 06:55:23;;;;;;;7.25;2.83;;;;;;;;;;4952155;28;20050;-57
2021/10/20 06:57:49;;;;;;;9.73;2.60;;;;;;;;;;4953342;28;20047;-58
2021/10/20 07:00:16;;;;;;;8.60;2.80;;;;;;;;;;4956274;28;20040;-59
2021/10/20 07:02:42;;;;;;;5.20;2.33;;;;;;;;;;4956195;28;20134;-56
2021/10/20 07:05:08;;;;;;;6.93;2.97;;;;;;;;;;4959500;28;20043;-58
2021/10/20 07:07:34;;;;;;;5.95;2.40;;;;;;;;;;4970141;28;20035;-58
2021/10/20 07:10:00;;;;;;;8.90;2.80;;;;;;;;;;4982780;28;20035;-60
2021/10/20 07:12:30;;;;;;;5.22;2.65;;;;;;;;;;4983888;28;20031;-56
2021/10/20 07:14:57;;;;;;;7.00;2.33;;;;;;;;;;4986375;28;20057;-59
2021/10/20 07:17:22;;;;;;;5.20;2.72;;;;;;;;;;4980576;28;20055;-58
2021/10/20 07:19:48;;;;;;;6.05;2.60;;;;;;;;;;4965839;28;20181;-56
2021/10/20 07:22:14;;;;;;;8.43;2.67;;;;;;;;;;4960091;28;20062;-58
2021/10/20 07:24:40;;;;;;;6.72;2.70;;;;;;;;;;4958638;28;20098;-56
2021/10/20 07:27:06;;;;;;;6.03;2.80;;;;;;;;;;4956506;28;20043;-58
2021/10/20 07:29:32;;;;;;;9.07;2.85;;;;;;;;;;4954635;28;20062;-58
2021/10/20 07:31:59;;;;;;;7.25;2.63;;;;;;;;;;4952817;28;20039;-57
2021/10/20 07:34:24;;;;;;;5.30;2.42;;;;;;;;;;4950196;28;20129;-58
2021/10/20 07:36:50;;;;;;;7.95;2.47;;;;;;;;;;4950578;28;20108;-59
2021/10/20 07:39:16;;;;;;;6.22;2.67;;;;;;;;;;4955218;28;20054;-57
2021/10/20 07:41:42;;;;;;;5.70;2.58;;;;;;;;;;4952719;28;20039;-59
2021/10/20 07:44:08;;;;;;;5.72;2.63;;;;;;;;;;4952970;28;20057;-56
2021/10/20 07:46:34;;;;;;;10.13;2.33;;;;;;;;;;4952204;28;20090;-58
2021/10/20 07:49:00;;;;;;;7.32;2.65;;;;;;;;;;4953976;28;20070;-60
2021/10/20 07:51:26;;;;;;;6.20;2.63;;;;;;;;;;4952574;28;20039;-59
2021/10/20 07:53:52;;;;;;;6.40;2.80;;;;;;;;;;4953139;28;20523;-57
2021/10/20 07:56:18;;;;;;;5.07;2.65;;;;;;;;;;4951586;28;20551;-57
2021/10/20 07:58:44;;;;;;;7.22;3.03;;;;;;;;;;4953331;28;20046;-58
2021/10/20 08:01:11;;;;;;;18.48;3.15;;;;;;;;;;4955250;28;20077;-58
2021/10/20 08:03:37;;;;;;;6.35;2.78;;;;;;;;;;4953642;28;20570;-56
2021/10/20 08:06:03;;;;;;;4.03;2.10;;;;;;;;;;4951022;28;20034;-58
2021/10/20 08:08:29;;;;;;;5.07;2.42;;;;;;;;;;4951264;28;20061;-58
2021/10/20 08:10:55;;;;;;;7.85;2.72;;;;;;;;;;4950924;28;20027;-55
2021/10/20 08:13:21;;;;;;;5.93;2.95;;;;;;;;;;4950773;28;20066;-60
2021/10/20 08:15:48;;;;;;;4.90;2.78;;;;;;;;;;4950270;28;20050;-59
2021/10/20 08:18:14;;;;;;;11.15;2.85;;;;;;;;;;4950853;28;20039;-59
2021/10/20 08:20:40;;;;;;;6.55;2.95;;;;;;;;;;4948682;28;20070;-59
2021/10/20 08:23:06;;;;;;;5.78;2.35;;;;;;;;;;4951426;28;20448;-57
2021/10/20 08:25:35;;;;;;;6.38;3.00;;;;;;;;;;4952449;28;20092;-58
2021/10/20 08:28:02;;;;;;;5.60;2.75;;;;;;;;;;4954575;28;20098;-58
2021/10/20 08:30:28;;;;;;;10.90;2.75;;;;;;;;;;4950407;28;20043;-57
2021/10/20 08:32:54;;;;;;;9.68;3.13;;;;;;;;;;4948800;28;20656;-57
2021/10/20 08:35:20;;;;;;;4.60;2.63;;;;;;;;;;4944514;28;20150;-57
2021/10/20 08:37:50;;;;;;;7.80;3.38;;;;;;;;;;4967254;28;20050;-58
2021/10/20 08:40:15;;;;;;;8.27;3.00;;;;;;;;;;4953481;28;20042;-57
2021/10/20 08:42:43;;;;;;;5.60;2.63;;;;;;;;;;4951214;28;20538;-59
2021/10/20 08:45:09;;;;;;;6.70;3.08;;;;;;;;;;4953293;28;20133;-58
2021/10/20 08:47:35;;;;;;;6.13;3.15;;;;;;;;;;4951170;28;20126;-58
2021/10/20 08:50:05;;;;;;;6.72;3.08;;;;;;;;;;4951418;28;20133;-58
2021/10/20 08:52:31;;;;;;;6.88;2.95;;;;;;;;;;4949969;28;20412;-59
2021/10/20 08:54:58;;;;;;;6.28;2.95;;;;;;;;;;4952927;28;20598;-58
2021/10/20 08:57:24;;;;;;;6.43;3.00;;;;;;;;;;4952580;28;20035;-58
2021/10/20 08:59:50;;;;;;;5.88;2.75;;;;;;;;;;4952843;28;20066;-59
2021/10/20 09:02:16;;;;;;;6.35;3.47;;;;;;;;;;4951065;28;20392;-58
2021/10/20 09:04:45;;;;;;;7.80;3.33;;;;;;;;;;4953018;28;21084;-58
2021/10/20 09:07:14;;;;;;;6.15;2.92;;;;;;;;;;4954968;28;20684;-58
2021/10/20 09:09:40;;;;;;;9.57;3.58;;;;;;;;;;4952646;28;20077;-59
2021/10/20 09:12:06;;;;;;;6.20;3.05;;;;;;;;;;4946687;28;20089;-59
2021/10/20 09:14:34;;;;;;;8.75;2.88;;;;;;;;;;4951737;28;20065;-59
2021/10/20 09:17:04;;;;;;;9.65;3.40;;;;;;;;;;4950083;28;20074;-57
2021/10/20 09:19:34;;;;;;;6.72;3.45;;;;;;;;;;4942264;28;20040;-59
2021/10/20 09:22:04;;;;;;;6.55;3.13;;;;;;;;;;4948361;28;20163;-57
2021/10/20 09:24:39;;;;;;;6.53;3.53;;;;;;;;;;4951257;28;20046;-58
2021/10/20 09:27:05;;;;;;;6.75;3.10;;;;;;;;;;4951745;28;20031;-58
2021/10/20 09:29:33;;;;;;;8.98;3.60;;;;;;;;;;4941758;28;20091;-58
2021/10/20 09:31:59;;;;;;;4.72;2.88;;;;;;;;;;4948077;28;20066;-58
2021/10/20 09:34:35;;;;;;;7.47;3.72;;;;;;;;;;4942837;28;20047;-58
2021/10/20 09:37:01;;;;;;;5.68;3.40;;;;;;;;;;4941928;28;20149;-59
2021/10/20 09:39:27;;;;;;;7.60;3.42;;;;;;;;;;4950776;28;21833;-59
2021/10/20 09:41:54;;;;;;;6.50;3.20;;;;;;;;;;4950822;28;20195;-60
2021/10/20 09:44:20;;;;;;;6.18;3.47;;;;;;;;;;4951172;28;20043;-58
2021/10/20 09:46:47;;;;;;;6.50;3.22;;;;;;;;;;4951089;28;20043;-58
2021/10/20 09:49:16;;;;;;;9.38;3.08;;;;;;;;;;4952467;28;20666;-56
2021/10/20 09:51:42;;;;;;;5.18;2.72;;;;;;;;;;4950832;28;20045;-59
2021/10/20 09:54:24;;;;;;;5.72;3.33;;;;;;;;;;4951623;28;20126;-58
2021/10/20 09:56:56;;;;;;;8.02;3.20;;;;;;;;;;4952956;28;20106;-58
2021/10/20 09:59:23;;;;;;;8.38;3.40;;;;;;;;;;4954635;28;20035;-59
2021/10/20 10:01:49;;;;;;;5.68;2.85;;;;;;;;;;4955709;28;20508;-59
2021/10/20 10:04:15;;;;;;;5.20;2.85;;;;;;;;;;4955680;28;20081;-59
2021/10/20 10:06:42;;;;;;;8.70;3.03;;;;;;;;;;4955794;28;20142;-59
2021/10/20 10:09:11;;;;;;;6.75;3.30;;;;;;;;;;4956667;28;20089;-59
2021/10/20 10:11:41;;;;;;;5.22;3.40;;;;;;;;;;4953873;28;20094;-58
2021/10/20 10:14:08;;;;;;;6.90;3.85;;;;;;;;;;4949284;28;20134;-58
2021/10/20 10:16:34;;;;;;;6.95;3.70;;;;;;;;;;4954647;28;20047;-58
2021/10/20 10:19:01;;;;;;;5.50;2.80;;;;;;;;;;4954825;28;20141;-57
2021/10/20 10:21:29;;;;;;;7.88;3.72;;;;;;;;;;4955964;28;20176;-59
2021/10/20 10:23:56;;;;;;;8.35;3.60;;;;;;;;;;4955785;28;20051;-54
2021/10/20 10:26:22;;;;;;;7.18;3.47;;;;;;;;;;4953079;28;20090;-59
2021/10/20 10:29:05;;;;;;;6.78;2.70;;;;;;;;;;4949031;28;20108;-58
2021/10/20 10:31:40;;;;;;;6.67;3.43;;;;;;;;;;4944666;28;20117;-57
2021/10/20 10:34:06;;;;;;;6.47;3.50;;;;;;;;;;4937181;28;20750;-58
2021/10/20 10:36:31;;;;;;;5.78;3.35;;;;;;;;;;4952196;28;20051;-56
2021/10/20 10:39:00;;;;;;;7.47;3.38;;;;;;;;;;4954078;28;20130;-57
2021/10/20 10:41:28;;;;;;;8.60;3.30;;;;;;;;;;4953554;28;20122;-59
2021/10/20 10:44:09;;;;;;;6.38;3.30;;;;;;;;;;4955634;28;20365;-59
2021/10/20 10:46:35;;;;;;;7.60;3.60;;;;;;;;;;4954149;28;20098;-57
2021/10/20 10:49:01;;;;;;;6.78;3.20;;;;;;;;;;4955656;28;20053;-60
2021/10/20 10:51:27;;;;;;;5.68;3.20;;;;;;;;;;4953507;28;20042;-57
2021/10/20 10:53:55;;;;;;;5.72;3.25;;;;;;;;;;4955309;28;20046;-57
2021/10/20 10:56:21;;;;;;;5.63;3.58;;;;;;;;;;4954290;28;20089;-59
2021/10/20 10:58:56;;;;;;;5.47;2.95;;;;;;;;;;4950731;28;20619;-60
2021/10/20 11:01:42;;;;;;;9.25;3.00;;;;;;;;;;4952619;28;20486;-59
2021/10/20 11:04:33;;;;;;;7.88;2.70;;;;;;;;;;4955516;28;20130;-58
2021/10/20 11:07:00;;;;;;;5.88;2.78;;;;;;;;;;4946913;28;20102;-61
2021/10/20 11:09:31;;;;;;;6.88;2.92;;;;;;;;;;4953156;28;21922;-58
2021/10/20 11:11:57;;;;;;;4.72;2.78;;;;;;;;;;4954538;28;20038;-57
2021/10/20 11:14:24;;;;;;;6.28;3.13;;;;;;;;;;4951151;28;20054;-58
2021/10/20 11:16:55;;;;;;;9.00;3.53;;;;;;;;;;4950021;28;20043;-57
2021/10/20 11:19:22;;;;;;;5.93;3.00;;;;;;;;;;4950916;28;20032;-59
2021/10/20 11:21:47;;;;;;;10.45;3.33;;;;;;;;;;4938159;28;20122;-56
2021/10/20 11:24:14;;;;;;;7.60;2.97;;;;;;;;;;4950570;28;20444;-57
2021/10/20 11:26:40;;;;;;;6.47;3.42;;;;;;;;;;4953131;28;20082;-56
2021/10/20 11:29:07;;;;;;;6.70;2.90;;;;;;;;;;4952803;28;20126;-58
2021/10/20 11:31:36;;;;;;;6.15;3.25;;;;;;;;;;4951967;28;20037;-58
2021/10/20 11:34:22;;;;;;;6.38;3.15;;;;;;;;;;4954791;28;20045;-54
2021/10/20 11:36:48;;;;;;;6.35;2.90;;;;;;;;;;4950738;28;20055;-56
2021/10/20 11:39:14;;;;;;;5.72;2.75;;;;;;;;;;4953896;28;20496;-58
2021/10/20 11:41:57;;;;;;;8.73;3.83;;;;;;;;;;4953159;28;20046;-58
2021/10/20 11:44:31;;;;;;;4.50;2.50;;;;;;;;;;4955971;28;20058;-57
2021/10/20 11:46:58;;;;;;;7.82;3.40;;;;;;;;;;4953593;28;20046;-57
2021/10/20 11:49:25;;;;;;;5.72;3.08;;;;;;;;;;4952829;28;20086;-59
2021/10/20 11:51:52;;;;;;;6.80;3.38;;;;;;;;;;4952881;28;20031;-57
2021/10/20 11:54:18;;;;;;;7.97;3.03;;;;;;;;;;4953143;28;20918;-54
2021/10/20 11:56:54;;;;;;;8.80;3.13;;;;;;;;;;4952288;28;20571;-57
2021/10/20 11:59:21;;;;;;;7.32;3.13;;;;;;;;;;4967592;28;20052;-57
2021/10/20 12:01:47;;;;;;;12.07;2.85;;;;;;;;;;4946811;28;20042;-58
2021/10/20 12:04:14;;;;;;;5.20;2.90;;;;;;;;;;4954796;28;20067;-57
2021/10/20 12:06:40;;;;;;;5.60;3.20;;;;;;;;;;4952357;28;20050;-56
2021/10/20 12:09:09;;;;;;;13.10;3.35;;;;;;;;;;4948869;28;20043;-59
2021/10/20 12:11:35;;;;;;;9.80;3.55;;;;;;;;;;4941815;28;20105;-58
2021/10/20 12:14:05;;;;;;;5.85;2.83;;;;;;;;;;4971149;28;20583;-58
2021/10/20 12:16:31;;;;;;;6.65;3.03;;;;;;;;;;4982289;28;20043;-57
2021/10/20 12:18:58;;;;;;;5.57;2.72;;;;;;;;;;4982946;28;20055;-58
2021/10/20 12:21:27;;;;;;;7.60;3.03;;;;;;;;;;4982777;28;20043;-59
2021/10/20 12:23:56;;;;;;;6.70;2.72;;;;;;;;;;4975294;28;20051;-60
2021/10/20 12:26:22;;;;;;;17.60;3.15;;;;;;;;;;4961430;28;20086;-58
2021/10/20 12:28:48;;;;;;;4.93;2.97;;;;;;;;;;4957271;28;20038;-60
2021/10/20 12:31:15;;;;;;;6.93;3.15;;;;;;;;;;4957950;28;20520;-58
2021/10/20 12:33:43;;;;;;;6.57;3.15;;;;;;;;;;4955371;28;20050;-58
2021/10/20 12:36:09;;;;;;;6.82;3.00;;;;;;;;;;4952889;28;20070;-59
2021/10/20 12:38:37;;;;;;;5.93;2.92;;;;;;;;;;4952346;28;20039;-60
2021/10/20 12:41:13;;;;;;;5.43;2.50;;;;;;;;;;4950638;28;20039;-60
2021/10/20 12:43:39;;;;;;;5.15;2.70;;;;;;;;;;4966116;28;20050;-59
2021/10/20 12:46:05;;;;;;;7.57;2.75;;;;;;;;;;4951795;28;20043;-57
2021/10/20 12:48:33;;;;;;;5.90;2.58;;;;;;;;;;4953473;28;20708;-59
2021/10/20 12:51:08;;;;;;;5.43;2.60;;;;;;;;;;4951181;28;20046;-60
2021/10/20 12:53:40;;;;;;;4.80;2.67;;;;;;;;;;4952017;28;20134;-59
2021/10/20 12:56:05;;;;;;;5.25;2.72;;;;;;;;;;4951083;28;20047;-60
2021/10/20 12:58:31;;;;;;;7.47;2.75;;;;;;;;;;4952764;28;20042;-59
2021/10/20 13:00:57;;;;;;;7.45;2.72;;;;;;;;;;4961804;28;20117;-59
2021/10/20 13:03:23;;;;;;;8.88;3.05;;;;;;;;;;4953769;28;20054;-59
2021/10/20 13:05:49;;;;;;;4.55;2.28;;;;;;;;;;4951972;28;20054;-59
2021/10/20 13:08:15;;;;;;;6.90;3.00;;;;;;;;;;4954714;28;20042;-58
2021/10/20 13:10:41;;;;;;;4.78;2.47;;;;;;;;;;4954416;28;20050;-60
2021/10/20 13:13:07;;;;;;;9.98;2.53;;;;;;;;;;4954095;28;20054;-58
2021/10/20 13:15:33;;;;;;;5.20;2.63;;;;;;;;;;4953342;28;20042;-57
2021/10/20 13:17:59;;;;;;;8.13;2.60;;;;;;;;;;4956449;28;20070;-59
2021/10/20 13:20:26;;;;;;;7.53;2.88;;;;;;;;;;4956089;28;20075;-60
2021/10/20 13:22:52;;;;;;;4.88;2.78;;;;;;;;;;4955719;28;20104;-57
2021/10/20 13:25:22;;;;;;;7.95;3.00;;;;;;;;;;4956706;28;20035;-60
2021/10/20 13:27:48;;;;;;;6.00;2.70;;;;;;;;;;4961311;28;20046;-61
2021/10/20 13:30:14;;;;;;;5.40;2.42;;;;;;;;;;4960132;28;20047;-60
2021/10/20 13:32:40;;;;;;;9.18;2.45;;;;;;;;;;4962444;28;20134;-59
2021/10/20 13:35:07;;;;;;;12.43;2.90;;;;;;;;;;4962532;28;20098;-58
2021/10/20 13:37:33;;;;;;;5.57;3.03;;;;;;;;;;4955908;28;20050;-60
2021/10/20 13:39:59;;;;;;;10.73;3.10;;;;;;;;;;4956063;28;20043;-58
2021/10/20 13:42:26;;;;;;;6.65;2.60;;;;;;;;;;4953081;28;20031;-58
2021/10/20 13:44:52;;;;;;;9.85;3.03;;;;;;;;;;4955612;28;20981;-58
2021/10/20 13:47:18;;;;;;;6.65;2.60;;;;;;;;;;4955688;28;20057;-56
2021/10/20 13:49:44;;;;;;;5.97;2.63;;;;;;;;;;4956480;28;20039;-57
2021/10/20 13:52:10;;;;;;;5.80;2.95;;;;;;;;;;4956347;28;20070;-58
2021/10/20 13:54:36;;;;;;;7.15;2.80;;;;;;;;;;4954973;28;20610;-59
2021/10/20 13:57:02;;;;;;;6.50;3.17;;;;;;;;;;4955110;28;20035;-59
2021/10/20 13:59:28;;;;;;;10.32;3.38;;;;;;;;;;4955567;28;20047;-60
2021/10/20 14:01:54;;;;;;;5.30;2.70;;;;;;;;;;4957306;28;20035;-60
2021/10/20 14:04:21;;;;;;;14.85;3.22;;;;;;;;;;4956615;28;20070;-58
2021/10/20 14:06:52;;;;;;;6.38;2.95;;;;;;;;;;4958889;28;20039;-58
2021/10/20 14:09:18;;;;;;;5.28;2.92;;;;;;;;;;4956738;28;20121;-60
2021/10/20 14:11:44;;;;;;;8.32;3.03;;;;;;;;;;4966982;28;20559;-60
2021/10/20 14:14:10;;;;;;;8.30;3.00;;;;;;;;;;4969466;28;20594;-57
2021/10/20 14:16:36;;;;;;;5.75;2.67;;;;;;;;;;4954300;28;20077;-58
2021/10/20 14:19:02;;;;;;;4.75;2.35;;;;;;;;;;4954707;28;20042;-60
2021/10/20 14:21:28;;;;;;;7.20;2.47;;;;;;;;;;4955360;28;20042;-59
2021/10/20 14:23:54;;;;;;;5.85;3.03;;;;;;;;;;4954570;28;20057;-59
2021/10/20 14:26:19;;;;;;;6.05;2.88;;;;;;;;;;4954234;28;20135;-60
2021/10/20 14:28:45;;;;;;;4.10;2.40;;;;;;;;;;4957840;28;20632;-59
2021/10/20 14:31:12;;;;;;;6.45;2.55;;;;;;;;;;4959161;28;20046;-59
2021/10/20 14:33:38;;;;;;;8.40;2.90;;;;;;;;;;4954603;28;20154;-58
2021/10/20 14:36:04;;;;;;;5.07;2.60;;;;;;;;;;4953975;28;20047;-60
2021/10/20 14:38:30;;;;;;;5.30;2.80;;;;;;;;;;4954218;28;20080;-59